Time;durP1;ratioP1;P1;durP2;ratioP2;P2;SDS_P1;SDS_P2;PMS_P1;PMS_P2;Temp;Humidity;BMP_temperature;BMP_pressure;BME280_temperature;BME280_humidity;BME280_pressure;Samples;Min_cycle;Max_cycle;Signal;HPM_P1;HPM_P2
2022/08/25 00:00:19;;;;;;;5.30;3.80;;;;;;;22.96;68.22;100799.88;4977709;28;101982;-50
2022/08/25 00:02:46;;;;;;;5.35;3.38;;;;;;;22.93;67.98;100792.25;4976409;28;104034;-50
2022/08/25 00:05:12;;;;;;;5.13;3.15;;;;;;;22.94;67.99;100793.88;4965529;28;102168;-50
2022/08/25 00:07:39;;;;;;;4.80;3.40;;;;;;;22.94;68.10;100793.88;4956449;28;101944;-50
2022/08/25 00:10:08;;;;;;;6.70;3.70;;;;;;;22.91;67.62;100789.00;4956999;27;102705;-50
2022/08/25 00:12:35;;;;;;;;;;;;;;;22.91;67.93;100795.34;4953100;28;104326;-50
2022/08/25 00:15:02;;;;;;;6.05;3.50;;;;;;;22.94;67.94;100791.09;4938028;28;101967;-50
2022/08/25 00:17:29;;;;;;;9.00;3.70;;;;;;;22.93;67.88;100792.25;4954616;28;101922;-50
2022/08/25 00:19:56;;;;;;;5.85;3.45;;;;;;;22.92;67.53;100793.41;4958194;28;102215;-50
2022/08/25 00:22:23;;;;;;;3.95;3.55;;;;;;;22.90;67.94;100781.81;4957108;27;104068;-50
2022/08/25 00:24:49;;;;;;;5.43;3.47;;;;;;;22.92;67.63;100787.84;4947395;28;102011;-50
2022/08/25 00:27:16;;;;;;;8.77;3.92;;;;;;;22.92;67.64;100787.84;4955164;28;101996;-50
2022/08/25 00:29:44;;;;;;;10.05;3.88;;;;;;;22.92;67.59;100785.09;4957930;28;102093;-50
2022/08/25 00:32:12;;;;;;;5.82;3.75;;;;;;;22.88;67.20;100776.63;4956462;28;103901;-50
2022/08/25 00:34:38;;;;;;;6.13;3.67;;;;;;;22.89;67.23;100774.66;4956773;28;102008;-50
2022/08/25 00:37:08;;;;;;;4.55;3.55;;;;;;;22.89;67.05;100774.66;4956867;28;101951;-50
2022/08/25 00:39:36;;;;;;;4.95;3.53;;;;;;;22.89;67.53;100771.88;4958231;28;102469;-50
2022/08/25 00:42:03;;;;;;;6.57;3.90;;;;;;;22.88;67.36;100767.50;4944296;28;103931;-50
2022/08/25 00:44:32;;;;;;;8.90;3.83;;;;;;;22.88;67.15;100759.19;4948950;28;101950;-50
2022/08/25 00:47:02;;;;;;;8.07;4.00;;;;;;;22.86;66.64;100770.63;4956653;28;101859;-50
2022/08/25 00:49:32;;;;;;;5.15;3.60;;;;;;;22.89;67.10;100766.34;4958011;28;102654;-50
2022/08/25 00:52:03;;;;;;;7.45;4.13;;;;;;;22.87;66.98;100763.13;4956255;28;103862;-50
2022/08/25 00:54:33;;;;;;;9.52;4.63;;;;;;;22.87;67.01;100768.66;4961122;28;102065;-50
2022/08/25 00:57:01;;;;;;;6.10;4.25;;;;;;;22.87;66.40;100763.13;4976135;28;102148;-50
2022/08/25 00:59:29;;;;;;;9.93;3.45;;;;;;;22.85;67.04;100782.88;4946081;28;102109;-50
2022/08/25 01:01:57;;;;;;;6.68;3.90;;;;;;;22.88;67.12;100782.19;4936299;28;104037;-50
2022/08/25 01:04:26;;;;;;;10.93;4.05;;;;;;;22.85;66.63;100774.56;4937517;28;102214;-50
2022/08/25 01:06:54;;;;;;;9.05;4.03;;;;;;;22.85;66.13;100776.53;4936855;28;101981;-50
2022/08/25 01:09:20;;;;;;;7.63;3.77;;;;;;;22.87;66.54;100779.78;4937843;28;102143;-50
2022/08/25 01:11:47;;;;;;;5.47;3.65;;;;;;;22.86;66.67;100780.91;4936323;28;103947;-50
2022/08/25 01:14:18;;;;;;;6.25;3.75;;;;;;;22.85;66.55;100784.84;4954881;28;102266;-50
2022/08/25 01:16:45;;;;;;;5.20;3.38;;;;;;;22.86;66.64;100783.69;4955033;28;102151;-50
2022/08/25 01:19:13;;;;;;;5.35;4.15;;;;;;;22.86;66.43;100778.94;4969925;28;102252;-50
2022/08/25 01:21:43;;;;;;;9.43;4.40;;;;;;;22.84;66.56;100786.81;4975217;28;103995;-50
2022/08/25 01:24:14;;;;;;;6.40;3.92;;;;;;;22.86;66.31;100784.47;4976096;28;101955;-50
2022/08/25 01:26:41;;;;;;;6.55;3.85;;;;;;;22.83;65.82;100778.84;4975238;28;102758;-50
2022/08/25 01:29:21;;;;;;;5.88;3.67;;;;;;;22.85;66.58;100780.09;4976626;28;102187;-50
2022/08/25 01:31:48;;;;;;;7.18;3.70;;;;;;;22.84;66.47;100781.28;4971536;28;103956;-50
2022/08/25 01:34:20;;;;;;;7.88;4.40;;;;;;;22.83;66.21;100790.75;4939207;28;102069;-50
2022/08/25 01:36:48;;;;;;;6.90;3.63;;;;;;;22.85;66.47;100782.06;4955972;28;102071;-50
2022/08/25 01:39:15;;;;;;;7.60;3.13;;;;;;;22.84;66.54;100788.78;4957216;28;102278;-50
2022/08/25 01:42:12;;;;;;;7.55;3.67;;;;;;;22.84;66.67;100774.91;4955359;28;103945;-50
2022/08/25 01:44:43;;;;;;;7.40;3.67;;;;;;;22.82;66.38;100782.78;4956343;28;102169;-50
2022/08/25 01:47:10;;;;;;;8.88;3.65;;;;;;;22.83;66.31;100784.38;4955799;28;101867;-50
2022/08/25 01:49:38;;;;;;;6.47;3.70;;;;;;;22.84;66.23;100788.78;4948502;28;102184;-50
2022/08/25 01:52:13;;;;;;;5.50;3.55;;;;;;;22.83;65.90;100792.72;4943199;28;104045;-50
2022/08/25 01:54:40;;;;;;;10.07;3.60;;;;;;;22.82;66.19;100793.88;4963322;28;102062;-50
2022/08/25 01:57:07;;;;;;;7.72;3.63;;;;;;;22.85;66.19;100790.41;4955977;28;101976;-50
2022/08/25 01:59:34;;;;;;;5.65;3.28;;;;;;;22.80;65.72;100791.47;4956390;28;102153;-50
2022/08/25 02:02:01;;;;;;;5.63;3.20;;;;;;;22.82;65.70;100789.13;4955243;28;103914;-50
2022/08/25 02:04:30;;;;;;;4.25;3.08;;;;;;;22.79;65.46;100789.84;4956165;28;102619;-50
2022/08/25 02:06:57;;;;;;;9.35;3.30;;;;;;;22.81;65.04;100792.28;4963963;28;102004;-50
2022/08/25 02:09:25;;;;;;;6.45;3.13;;;;;;;22.84;65.67;100797.13;4976717;28;102108;-50
2022/08/25 02:11:52;;;;;;;6.38;3.15;;;;;;;22.81;65.85;100790.28;4974957;27;104193;-50
2022/08/25 02:14:18;;;;;;;5.70;3.42;;;;;;;22.81;65.55;100795.03;4956885;28;102409;-50
2022/08/25 02:16:48;;;;;;;6.13;3.40;;;;;;;22.79;65.51;100799.00;4955405;28;102371;-50
2022/08/25 02:19:15;;;;;;;4.65;3.33;;;;;;;22.81;66.14;100797.81;4956181;28;102156;-50
2022/08/25 02:21:42;;;;;;;5.05;3.45;;;;;;;22.79;65.29;100793.44;4963044;27;104110;-50
2022/08/25 02:24:10;;;;;;;4.97;3.58;;;;;;;22.80;65.55;100797.00;4943014;28;102396;-50
2022/08/25 02:26:39;;;;;;;3.75;2.90;;;;;;;22.79;65.58;100793.44;4944651;28;101908;-50
2022/08/25 02:29:06;;;;;;;;;;;;;;;22.82;65.39;100799.44;4940848;28;102568;-50
2022/08/25 02:31:33;;;;;;;7.35;3.45;;;;;;;22.81;65.47;100786.72;4935308;28;103942;-50
2022/08/25 02:34:01;;;;;;;3.97;3.33;;;;;;;22.82;65.65;100788.31;4935207;28;102163;-50
2022/08/25 02:36:28;;;;;;;4.95;3.20;;;;;;;22.78;65.54;100788.22;4935788;28;101910;-50
2022/08/25 02:38:54;;;;;;;4.68;3.53;;;;;;;22.81;65.56;100790.28;4955852;28;101999;-51
2022/08/25 02:41:23;;;;;;;4.80;3.13;;;;;;;22.80;65.82;100791.47;4945668;28;104061;-51
2022/08/25 02:43:51;;;;;;;5.57;3.38;;;;;;;22.80;65.67;100791.47;4936037;28;102042;-50
2022/08/25 02:46:19;;;;;;;7.40;3.05;;;;;;;22.80;65.82;100785.91;4935660;28;102148;-52
2022/08/25 02:48:46;;;;;;;6.75;3.20;;;;;;;22.79;65.62;100787.88;4968201;28;102118;-51
2022/08/25 02:51:13;;;;;;;4.13;3.45;;;;;;;22.79;65.23;100790.66;4974326;28;103948;-51
2022/08/25 02:53:41;;;;;;;5.20;3.55;;;;;;;22.78;65.25;100794.56;4974616;28;102072;-51
2022/08/25 02:56:09;;;;;;;6.45;3.47;;;;;;;22.81;65.42;100800.59;4935662;28;101925;-51
2022/08/25 02:58:37;;;;;;;4.60;2.88;;;;;;;22.79;65.19;100807.31;4961088;28;102146;-50
2022/08/25 03:01:06;;;;;;;4.63;3.03;;;;;;;22.77;65.19;100820.72;4973003;28;104029;-51
2022/08/25 03:03:32;;;;;;;;;;;;;;;22.79;65.06;100812.03;4975301;27;101929;-51
2022/08/25 03:05:59;;;;;;;6.65;3.28;;;;;;;22.79;64.94;100809.25;4974620;28;101943;-51
2022/08/25 03:08:26;;;;;;;6.10;3.00;;;;;;;22.79;65.44;100815.63;4975744;28;102324;-50
2022/08/25 03:10:52;;;;;;;4.97;3.10;;;;;;;22.78;64.82;100821.53;4973636;28;103927;-50
2022/08/25 03:13:19;;;;;;;6.60;3.03;;;;;;;22.79;65.26;100829.50;4963886;28;102533;-50
2022/08/25 03:15:45;;;;;;;6.13;2.88;;;;;;;22.77;65.21;100825.47;4953521;28;102078;-50
2022/08/25 03:18:14;;;;;;;5.55;3.10;;;;;;;22.78;65.09;100819.53;4955878;28;102075;-50
2022/08/25 03:20:40;;;;;;;;;;;;;;;22.76;65.00;100821.88;4954243;28;104137;-50
2022/08/25 03:23:07;;;;;;;7.25;3.03;;;;;;;22.77;64.80;100826.25;4955098;28;102282;-50
2022/08/25 03:28:19;;;;;;;7.32;3.10;;;;;;;22.78;64.90;100836.19;4955323;28;102413;-51
2022/08/25 03:30:46;;;;;;;5.35;3.30;;;;;;;22.79;65.00;100835.06;4953719;28;103905;-50
2022/08/25 03:33:14;;;;;;;4.43;3.05;;;;;;;22.79;65.04;100831.44;4954806;27;101999;-50
2022/08/25 03:35:40;;;;;;;4.93;3.10;;;;;;;22.77;64.72;100837.38;4954388;28;102129;-50
2022/08/25 03:38:07;;;;;;;5.63;3.08;;;;;;;22.76;64.93;100835.75;4955407;28;102756;-50
2022/08/25 03:40:33;;;;;;;6.07;3.08;;;;;;;22.77;65.10;100837.38;4953714;28;103937;-50
2022/08/25 03:43:00;;;;;;;4.53;3.33;;;;;;;22.78;65.28;100830.66;4954369;28;102083;-51
2022/08/25 03:45:26;;;;;;;7.03;3.42;;;;;;;22.78;64.76;100838.16;4955909;28;102002;-51
2022/08/25 03:47:53;;;;;;;7.82;3.08;;;;;;;22.75;64.45;100839.66;4956548;28;102319;-50
2022/08/25 03:50:22;;;;;;;4.30;2.90;;;;;;;22.76;64.45;100835.75;4973867;28;103876;-50
2022/08/25 03:52:52;;;;;;;7.78;2.92;;;;;;;22.77;64.90;100836.56;4977417;28;101955;-50
2022/08/25 03:55:19;;;;;;;3.45;3.00;;;;;;;22.78;65.07;100833.41;4976981;28;102013;-50
2022/08/25 03:57:46;;;;;;;8.88;3.92;;;;;;;22.76;64.59;100824.66;4978173;28;102548;-50
2022/08/25 04:00:13;;;;;;;7.63;3.33;;;;;;;22.76;64.67;100826.63;4976571;28;103970;-50
2022/08/25 04:02:40;;;;;;;5.97;3.10;;;;;;;22.75;64.70;100823.03;4977056;28;102096;-50
2022/08/25 04:05:08;;;;;;;4.32;2.80;;;;;;;22.76;64.90;100819.09;4967061;28;102578;-50
2022/08/25 04:07:36;;;;;;;4.60;3.42;;;;;;;22.76;64.88;100818.31;4938717;28;102230;-50
2022/08/25 04:10:04;;;;;;;6.93;3.37;;;;;;;22.76;64.65;100824.66;4937450;28;104043;-50
2022/08/25 04:12:31;;;;;;;11.07;3.23;;;;;;;22.74;64.52;100815.88;4941114;28;102089;-50
2022/08/25 04:14:58;;;;;;;7.50;3.13;;;;;;;22.76;64.64;100821.06;4956565;28;101912;-50
2022/08/25 04:17:24;;;;;;;7.90;2.95;;;;;;;22.76;64.85;100819.09;4958151;28;101894;-50
2022/08/25 04:19:51;;;;;;;7.38;2.65;;;;;;;22.73;64.01;100819.81;4955731;28;104000;-50
2022/08/25 04:22:18;;;;;;;7.03;3.42;;;;;;;22.74;63.55;100821.41;4951716;28;102053;-50
2022/08/25 04:24:46;;;;;;;6.63;2.80;;;;;;;22.76;65.10;100823.84;4937252;28;102053;-51
2022/08/25 04:27:12;;;;;;;7.03;3.10;;;;;;;22.74;64.67;100818.63;4938762;28;102264;-50
2022/08/25 04:29:39;;;;;;;4.45;2.72;;;;;;;22.75;64.15;100808.34;4937053;28;104059;-50
2022/08/25 04:32:06;;;;;;;4.53;2.97;;;;;;;22.76;64.88;100812.75;4937382;28;102140;-50
2022/08/25 04:34:33;;;;;;;10.43;3.13;;;;;;;22.72;63.91;100812.66;4937049;28;101924;-50
2022/08/25 04:37:01;;;;;;;4.13;2.92;;;;;;;22.74;64.26;100810.31;4938349;28;102116;-50
2022/08/25 04:39:28;;;;;;;7.20;2.58;;;;;;;22.73;64.41;100814.25;4944375;28;103900;-50
2022/08/25 04:41:56;;;;;;;6.38;2.50;;;;;;;22.73;63.80;100808.72;4956604;28;101946;-50
2022/08/25 04:44:24;;;;;;;7.50;3.03;;;;;;;22.73;64.18;100803.16;4956760;28;101913;-50
2022/08/25 04:46:50;;;;;;;5.13;3.20;;;;;;;22.74;64.28;100809.50;4957643;28;102163;-50
2022/08/25 04:49:17;;;;;;;9.13;2.60;;;;;;;22.73;64.69;100797.63;4956265;28;103907;-50
2022/08/25 04:51:43;;;;;;;4.38;2.63;;;;;;;22.76;64.36;100813.56;4956927;28;102041;-50
2022/08/25 04:54:15;;;;;;;8.10;3.13;;;;;;;22.76;64.05;100810.78;4957881;27;102152;-50
2022/08/25 04:56:42;;;;;;;3.40;2.92;;;;;;;22.74;64.37;100807.53;4957552;28;102032;-50
2022/08/25 04:59:13;;;;;;;6.53;3.05;;;;;;;22.73;64.49;100797.63;4941111;28;103828;-50
2022/08/25 05:01:41;;;;;;;7.22;3.13;;;;;;;22.76;64.71;100793.34;4955702;28;102369;-50
2022/08/25 05:04:11;;;;;;;6.97;3.00;;;;;;;22.74;64.32;100793.66;4966589;28;102085;-51
2022/08/25 05:06:38;;;;;;;6.70;2.90;;;;;;;22.74;64.44;100787.31;4977846;28;102117;-50
2022/08/25 05:09:05;;;;;;;9.35;3.40;;;;;;;22.77;64.42;100787.41;4975717;28;103912;-50
2022/08/25 05:11:32;;;;;;;5.15;2.80;;;;;;;22.77;64.07;100781.06;4965297;28;102256;-50
2022/08/25 05:14:00;;;;;;;5.23;3.40;;;;;;;22.76;64.41;100785.81;4950261;28;102372;-50
2022/08/25 05:16:28;;;;;;;9.77;3.43;;;;;;;22.78;64.32;100782.69;4953278;28;102181;-50
2022/08/25 05:18:55;;;;;;;6.80;3.13;;;;;;;22.78;64.48;100783.47;4955863;28;103958;-50
2022/08/25 05:21:24;;;;;;;7.60;3.13;;;;;;;22.79;63.51;100792.59;4956266;28;102422;-50
2022/08/25 05:23:55;;;;;;;5.80;3.20;;;;;;;22.81;64.58;100781.16;4936739;28;102136;-50
2022/08/25 05:26:23;;;;;;;7.88;2.97;;;;;;;22.81;64.16;100781.16;4959873;28;102418;-50
2022/08/25 05:28:50;;;;;;;5.70;3.20;;;;;;;22.81;64.99;100772.84;4936456;28;103849;-50
2022/08/25 05:31:18;;;;;;;10.73;3.30;;;;;;;22.82;65.03;100786.34;4950808;28;101830;-50
2022/08/25 05:33:47;;;;;;;8.93;3.05;;;;;;;22.79;65.07;100779.56;4952261;28;102037;-50
2022/08/25 05:36:14;;;;;;;5.70;2.90;;;;;;;22.79;65.32;100779.56;4957372;28;102541;-51
2022/08/25 05:38:41;;;;;;;9.25;3.42;;;;;;;22.80;65.02;100780.38;4956178;28;103974;-50
2022/08/25 05:41:10;;;;;;;11.52;2.83;;;;;;;22.81;65.39;100778.41;4956016;28;101886;-50
2022/08/25 05:43:39;;;;;;;7.53;3.00;;;;;;;22.78;64.70;100777.94;4955944;28;102236;-50
2022/08/25 05:46:07;;;;;;;6.25;3.03;;;;;;;22.79;64.99;100776.78;4952735;28;102264;-50
2022/08/25 05:48:34;;;;;;;10.68;2.88;;;;;;;22.79;65.07;100784.28;4954629;28;104132;-50
2022/08/25 05:51:05;;;;;;;8.02;2.92;;;;;;;22.78;64.60;100783.47;4955513;28;102150;-50
2022/08/25 05:53:32;;;;;;;6.20;2.75;;;;;;;22.79;64.76;100779.56;4952258;28;101889;-50
2022/08/25 05:55:59;;;;;;;7.15;2.75;;;;;;;22.79;64.63;100774.03;4963065;28;102087;-50
2022/08/25 05:58:27;;;;;;;11.70;3.00;;;;;;;22.82;64.16;100782.78;4950515;27;104506;-50
2022/08/25 06:00:54;;;;;;;8.93;2.75;;;;;;;22.83;65.02;100778.84;4953001;28;102248;-50
2022/08/25 06:03:21;;;;;;;5.50;3.00;;;;;;;22.86;65.24;100778.94;4948574;27;102334;-50
2022/08/25 06:05:48;;;;;;;5.95;2.83;;;;;;;22.87;66.17;100779.78;4936169;28;102156;-50
2022/08/25 06:08:16;;;;;;;15.35;3.50;;;;;;;22.87;64.59;100771.44;4966109;28;103926;-50
2022/08/25 06:10:43;;;;;;;7.60;2.60;;;;;;;22.87;64.65;100774.22;4961128;28;102208;-50
2022/08/25 06:13:09;;;;;;;8.77;3.22;;;;;;;22.93;60.58;100775.59;4953339;28;102155;-50
2022/08/25 06:15:36;;;;;;;9.15;3.10;;;;;;;22.96;59.71;100772.13;4965868;28;102508;-50
2022/08/25 06:18:03;;;;;;;8.95;3.15;;;;;;;22.98;59.66;100770.59;4953397;28;103883;-50
2022/08/25 06:20:30;;;;;;;9.77;2.63;;;;;;;22.99;60.69;100776.97;4953667;28;102358;-50
2022/08/25 06:22:57;;;;;;;8.90;2.85;;;;;;;22.98;59.14;100776.16;4938741;28;102569;-50
2022/08/25 06:25:26;;;;;;;9.52;3.80;;;;;;;23.03;59.23;100777.84;4954131;28;102178;-50
2022/08/25 06:27:53;;;;;;;;;;;;;;;23.04;62.31;100776.69;4953207;28;103904;-50
2022/08/25 06:30:21;;;;;;;8.63;2.90;;;;;;;23.05;60.46;100781.09;4972579;28;102014;-50
2022/08/25 06:32:48;;;;;;;14.80;3.42;;;;;;;23.08;60.87;100774.84;4972590;28;102271;-50
2022/08/25 06:35:18;;;;;;;14.90;3.30;;;;;;;23.08;60.81;100777.63;4955584;28;102628;-50
2022/08/25 06:37:46;;;;;;;14.85;3.22;;;;;;;23.11;57.50;100774.13;4951228;28;103883;-50
2022/08/25 06:40:15;;;;;;;7.43;2.80;;;;;;;23.13;57.85;100773.78;4940796;28;102051;-50
2022/08/25 06:42:47;;;;;;;9.13;2.95;;;;;;;23.09;62.39;100775.66;4952502;28;102185;-50
2022/08/25 06:45:13;;;;;;;17.20;3.40;;;;;;;23.09;60.91;100772.88;4954034;28;102087;-50
2022/08/25 06:47:40;;;;;;;7.65;2.83;;;;;;;23.09;60.15;100776.44;4952650;28;103934;-50
2022/08/25 06:50:07;;;;;;;17.35;2.85;;;;;;;23.14;58.12;100772.59;4952820;28;102266;-50
2022/08/25 06:52:34;;;;;;;12.10;2.97;;;;;;;23.16;58.00;100762.75;4936670;27;102238;-50
2022/08/25 06:55:01;;;;;;;12.80;3.20;;;;;;;23.20;57.15;100772.00;4946934;28;102279;-50
2022/08/25 06:57:27;;;;;;;11.70;2.65;;;;;;;23.24;59.05;100766.53;4971908;28;103919;-50
2022/08/25 06:59:55;;;;;;;13.88;3.15;;;;;;;23.24;58.21;100764.56;4970279;28;102252;-50
2022/08/25 07:02:22;;;;;;;10.73;3.75;;;;;;;23.25;60.95;100757.84;4950741;27;103580;-50
2022/08/25 07:04:48;;;;;;;13.38;3.25;;;;;;;23.19;59.93;100756.50;4958192;28;103285;-49
2022/08/25 07:07:15;;;;;;;8.38;2.50;;;;;;;23.27;56.56;100760.28;4950446;28;103951;-50
2022/08/25 07:09:41;;;;;;;12.00;3.08;;;;;;;23.29;59.39;100760.72;4952546;28;103989;-49
2022/08/25 07:12:08;;;;;;;14.50;3.45;;;;;;;23.23;60.04;100762.16;4964358;27;102257;-51
2022/08/25 07:14:35;;;;;;;16.70;2.85;;;;;;;23.29;60.79;100762.69;4949729;28;102312;-50
2022/08/25 07:17:03;;;;;;;11.52;3.00;;;;;;;23.26;59.83;100753.91;4955681;28;104015;-50
2022/08/25 07:19:30;;;;;;;12.68;3.25;;;;;;;23.31;60.04;100743.72;4954440;27;102148;-50
2022/08/25 07:21:57;;;;;;;13.23;3.33;;;;;;;23.30;60.04;100747.63;4955456;28;102365;-50
2022/08/25 07:24:24;;;;;;;11.57;3.17;;;;;;;23.30;59.31;100742.91;4956371;28;102235;-50
2022/08/25 07:26:51;;;;;;;12.30;3.42;;;;;;;23.34;58.29;100740.22;4955338;28;103909;-50
2022/08/25 07:29:20;;;;;;;11.95;2.80;;;;;;;23.32;63.64;100748.09;4953509;28;102215;-50
2022/08/25 07:31:46;;;;;;;10.65;3.55;;;;;;;23.31;62.44;100743.72;4935554;28;102441;-50
2022/08/25 07:37:03;;;;;;;11.68;2.63;;;;;;;23.32;64.20;100739.75;4935971;28;104064;-50
2022/08/25 07:39:33;;;;;;;11.50;3.10;;;;;;;23.34;63.09;100743.00;4936434;28;102324;-50
2022/08/25 07:41:59;;;;;;;14.70;3.20;;;;;;;23.39;62.07;100742.72;4937685;28;102444;-50
2022/08/25 07:44:26;;;;;;;8.52;2.80;;;;;;;23.41;62.11;100732.06;4956572;28;102206;-50
2022/08/25 07:46:53;;;;;;;5.50;2.90;;;;;;;23.39;63.30;100728.84;4959265;27;104023;-50
2022/08/25 07:49:23;;;;;;;11.30;3.08;;;;;;;23.39;62.46;100717.72;4936683;28;102386;-50
2022/08/25 07:51:50;;;;;;;9.90;2.60;;;;;;;23.43;62.56;100721.41;4945807;28;102549;-50
2022/08/25 07:54:17;;;;;;;14.60;3.30;;;;;;;23.44;62.20;100726.63;4956441;28;102606;-50
2022/08/25 07:56:44;;;;;;;10.93;3.13;;;;;;;23.45;62.29;100727.41;4954512;28;105744;-50
2022/08/25 07:59:10;;;;;;;7.40;2.50;;;;;;;23.46;61.57;100720.69;4955682;28;102186;-50
2022/08/25 08:01:38;;;;;;;8.80;2.80;;;;;;;23.45;62.44;100707.97;4954414;28;102488;-50
2022/08/25 08:04:05;;;;;;;;;;;;;;;23.45;62.38;100716.31;4975695;27;102470;-51
2022/08/25 08:06:33;;;;;;;10.60;3.22;;;;;;;23.47;62.02;100719.50;4954512;28;104224;-50
2022/08/25 08:09:01;;;;;;;16.88;3.25;;;;;;;23.50;60.83;100705.72;4955457;28;102186;-50
2022/08/25 08:11:30;;;;;;;7.87;3.30;;;;;;;23.51;62.02;100703.75;4953320;28;104526;-50
2022/08/25 08:13:58;;;;;;;14.43;3.20;;;;;;;23.47;62.29;100709.19;4956117;28;102072;-50
2022/08/25 08:16:28;;;;;;;16.20;3.97;;;;;;;23.50;62.46;100707.69;4954788;28;104069;-50
2022/08/25 08:18:55;;;;;;;10.32;3.40;;;;;;;23.49;62.22;100700.53;4954787;28;102380;-49
2022/08/25 08:21:24;;;;;;;8.20;2.47;;;;;;;23.49;62.96;100700.53;4942110;28;101880;-50
2022/08/25 08:23:54;;;;;;;12.13;3.15;;;;;;;23.48;62.54;100699.72;4950953;28;102485;-50
2022/08/25 08:26:21;;;;;;;10.52;2.97;;;;;;;23.55;62.04;100698.25;4954054;28;104003;-50
2022/08/25 08:28:48;;;;;;;13.30;3.55;;;;;;;23.55;62.19;100689.94;4954862;28;102185;-50
2022/08/25 08:31:18;;;;;;;10.23;3.53;;;;;;;23.54;62.44;100691.09;4968944;28;102543;-50
2022/08/25 08:33:46;;;;;;;13.35;3.20;;;;;;;23.53;62.20;100684.75;4975942;28;102446;-50
2022/08/25 08:36:12;;;;;;;14.82;3.45;;;;;;;23.54;62.09;100678.03;4973916;28;104157;-50
2022/08/25 08:38:41;;;;;;;13.50;3.70;;;;;;;23.56;62.37;100678.47;4963700;28;102751;-50
2022/08/25 08:44:18;;;;;;;17.30;3.40;;;;;;;23.61;61.98;100669.06;4935624;28;102224;-50
2022/08/25 08:46:54;;;;;;;12.98;3.50;;;;;;;23.60;61.83;100662.69;4942555;28;103896;-50
2022/08/25 08:49:30;;;;;;;12.20;3.97;;;;;;;23.57;62.10;100663.41;4954795;28;102089;-50
2022/08/25 08:52:00;;;;;;;9.60;3.63;;;;;;;23.61;61.48;100658.75;4954258;28;102575;-50
2022/08/25 08:54:31;;;;;;;11.20;3.15;;;;;;;23.64;60.94;100668.34;4959799;27;102084;-50
2022/08/25 08:57:05;;;;;;;13.15;3.10;;;;;;;23.67;60.67;100657.34;4971352;28;104096;-50
2022/08/25 08:59:40;;;;;;;10.73;3.00;;;;;;;23.66;60.56;100661.25;4966641;28;102296;-50
2022/08/25 09:02:14;;;;;;;10.90;3.28;;;;;;;23.67;60.40;100662.91;4961703;28;102065;-50
2022/08/25 09:04:45;;;;;;;12.75;3.00;;;;;;;23.73;59.25;100644.78;4975654;28;102660;-50
2022/08/25 09:07:18;;;;;;;14.70;2.83;;;;;;;23.72;59.79;100643.16;4960743;28;103976;-50
2022/08/25 09:09:45;;;;;;;12.15;2.70;;;;;;;23.81;58.71;100644.94;4954709;28;102226;-50
2022/08/25 09:12:17;;;;;;;15.45;2.78;;;;;;;23.78;58.32;100640.13;4950071;28;102551;-50
2022/08/25 09:14:55;;;;;;;8.25;2.40;;;;;;;23.73;58.73;100638.44;4954542;28;102403;-49
2022/08/25 09:17:37;;;;;;;9.32;2.70;;;;;;;23.78;57.85;100631.78;4953216;28;103831;-50
2022/08/25 09:20:22;;;;;;;9.52;2.53;;;;;;;23.73;57.74;100619.78;4962179;28;102294;-50
2022/08/25 09:23:02;;;;;;;11.77;3.15;;;;;;;23.78;57.48;100623.44;4972998;28;102070;-51
2022/08/25 09:25:39;;;;;;;12.55;2.75;;;;;;;23.76;57.19;100621.00;4974944;28;102242;-51
2022/08/25 09:28:12;;;;;;;7.85;2.42;;;;;;;23.76;57.12;100615.44;4964627;28;103987;-51
2022/08/25 09:30:47;;;;;;;3.80;2.17;;;;;;;23.79;56.77;100630.59;4948545;28;102168;-50
2022/08/25 09:33:23;;;;;;;14.80;2.92;;;;;;;23.83;55.12;100614.81;4949134;28;102349;-51
2022/08/25 09:35:51;;;;;;;7.10;2.45;;;;;;;23.80;56.04;100615.53;4955324;28;102471;-50
2022/08/25 09:38:18;;;;;;;12.40;2.85;;;;;;;23.77;56.38;100610.72;4969453;28;104312;-51
2022/08/25 09:40:47;;;;;;;9.32;2.63;;;;;;;23.74;56.79;100603.91;4953070;27;102156;-51
2022/08/25 09:43:28;;;;;;;8.20;2.25;;;;;;;23.77;56.70;100605.16;4957913;28;102714;-51
2022/08/25 09:45:59;;;;;;;8.25;1.85;;;;;;;23.81;56.25;100606.84;4946033;28;102473;-51
2022/08/25 09:48:28;;;;;;;9.65;2.95;;;;;;;23.83;55.08;100604.50;4953678;28;103895;-50
2022/08/25 09:51:00;;;;;;;6.03;2.30;;;;;;;23.81;55.27;100603.25;4953833;28;101970;-51
2022/08/25 09:53:28;;;;;;;5.78;2.25;;;;;;;23.81;54.96;100586.59;4953225;28;102097;-50
2022/08/25 09:56:03;;;;;;;8.35;1.95;;;;;;;23.83;54.79;100593.38;4953758;28;102256;-50
2022/08/25 09:58:31;;;;;;;6.97;2.10;;;;;;;23.85;54.65;100590.25;4952789;28;103845;-50
2022/08/25 10:01:05;;;;;;;10.40;2.50;;;;;;;23.87;54.06;100585.13;4953802;28;102220;-50
2022/08/25 10:03:32;;;;;;;8.57;2.00;;;;;;;23.82;54.42;100580.66;4944550;27;102091;-50
2022/08/25 10:06:04;;;;;;;15.25;2.33;;;;;;;23.82;54.56;100591.78;4953733;28;102052;-50
2022/08/25 10:08:37;;;;;;;11.55;2.17;;;;;;;23.82;55.19;100590.97;4951269;27;103904;-50
2022/08/25 10:11:07;;;;;;;5.57;1.98;;;;;;;23.82;54.38;100583.44;4954971;28;102091;-50
2022/08/25 10:13:41;;;;;;;6.95;2.08;;;;;;;23.79;54.62;100578.59;4952690;27;102367;-50
2022/08/25 10:16:22;;;;;;;5.60;2.20;;;;;;;23.78;55.01;100595.66;4953792;28;102177;-50
2022/08/25 10:19:01;;;;;;;8.52;2.20;;;;;;;23.77;54.98;100594.06;4952190;28;103934;-50
2022/08/25 10:21:27;;;;;;;11.23;2.35;;;;;;;23.81;54.49;100589.38;4933692;28;102263;-50
2022/08/25 10:23:56;;;;;;;4.67;2.40;;;;;;;23.83;54.67;100589.78;4968416;28;102246;-50
2022/08/25 10:26:32;;;;;;;6.80;2.15;;;;;;;23.83;54.62;100589.78;4973393;28;102186;-50
2022/08/25 10:29:16;;;;;;;9.07;2.15;;;;;;;23.86;53.99;100580.72;4970618;28;103889;-50
2022/08/25 10:31:50;;;;;;;4.78;1.98;;;;;;;23.83;54.13;100581.47;4953275;28;102375;-52
2022/08/25 10:34:24;;;;;;;8.13;2.08;;;;;;;23.78;54.87;100578.97;4953628;28;102535;-50
2022/08/25 10:37:00;;;;;;;7.18;2.33;;;;;;;23.79;55.05;100586.13;4943612;28;102702;-50
2022/08/25 10:39:37;;;;;;;7.53;2.80;;;;;;;23.81;54.87;100583.81;4945177;28;108397;-50
2022/08/25 10:42:19;;;;;;;5.38;2.20;;;;;;;23.80;55.06;100590.53;4942183;28;104852;-50
2022/08/25 10:48:11;;;;;;;7.22;2.53;;;;;;;23.78;55.10;100584.53;4950037;28;102481;-50
2022/08/25 10:50:42;;;;;;;7.72;2.38;;;;;;;23.78;55.38;100581.75;4933991;28;104061;-50
2022/08/25 10:53:24;;;;;;;6.18;2.38;;;;;;;23.77;55.16;100588.50;4944267;28;103058;-50
2022/08/25 10:56:02;;;;;;;4.57;2.17;;;;;;;23.83;54.76;100573.91;4942505;28;102477;-50
2022/08/25 10:58:50;;;;;;;7.57;2.70;;;;;;;23.80;54.77;100579.41;4956314;28;102339;-50
2022/08/25 11:01:30;;;;;;;3.15;1.92;;;;;;;23.81;54.47;100576.28;4946081;28;107846;-50
2022/08/25 11:04:01;;;;;;;6.50;2.58;;;;;;;23.82;54.75;100574.31;4959578;28;102251;-50
2022/08/25 11:06:37;;;;;;;5.82;2.50;;;;;;;23.84;54.63;100566.38;4964857;28;102918;-51
2022/08/25 11:09:07;;;;;;;3.60;1.98;;;;;;;23.82;53.98;100569.53;4952260;28;102343;-50
2022/08/25 11:11:38;;;;;;;7.32;2.50;;;;;;;23.82;54.18;100560.41;4954268;27;103906;-50
2022/08/25 11:14:09;;;;;;;5.18;2.30;;;;;;;23.79;55.00;100552.78;4954090;28;102149;-50
2022/08/25 11:16:40;;;;;;;9.68;2.35;;;;;;;23.79;55.02;100558.34;4952611;28;102391;-50
2022/08/25 11:19:17;;;;;;;6.00;2.25;;;;;;;23.79;54.76;100553.59;4955089;28;102390;-50
2022/08/25 11:21:50;;;;;;;7.75;2.05;;;;;;;23.76;54.87;100553.53;4954343;28;104058;-50
2022/08/25 11:24:37;;;;;;;9.73;2.33;;;;;;;23.77;55.13;100544.03;4955710;28;102331;-51
2022/08/25 11:27:05;;;;;;;5.50;2.40;;;;;;;23.76;54.97;100542.41;4951468;28;102373;-50
2022/08/25 11:29:35;;;;;;;6.00;2.10;;;;;;;23.74;55.29;100546.38;4936161;28;102616;-50
2022/08/25 11:32:04;;;;;;;8.05;2.40;;;;;;;23.73;55.13;100538.41;4934914;28;104677;-50
2022/08/25 11:34:32;;;;;;;7.30;1.85;;;;;;;23.74;55.48;100545.56;4940809;28;102349;-50
2022/08/25 11:37:06;;;;;;;5.27;2.57;;;;;;;23.73;55.87;100536.44;4964121;28;102100;-50